Time;durP1;ratioP1;P1;durP2;ratioP2;P2;SDS_P1;SDS_P2;PMS_P1;PMS_P2;Temp;Humidity;BMP_temperature;BMP_pressure;BME280_temperature;BME280_humidity;BME280_pressure;Samples;Min_cycle;Max_cycle;Signal;HPM_P1;HPM_P2
2021/05/01 00:01:25;;;;;;;38.72;30.55;;;;;;;;;;4949597;28;20041;-82
2021/05/01 00:04:10;;;;;;;39.47;31.85;;;;;;;;;;4952757;28;20105;-82
2021/05/01 00:06:55;;;;;;;47.60;35.55;;;;;;;;;;4953701;28;20050;-82
2021/05/01 00:09:41;;;;;;;40.25;31.73;;;;;;;;;;4958590;28;20031;-81
2021/05/01 00:12:26;;;;;;;44.15;33.83;;;;;;;;;;4955017;28;20034;-82
2021/05/01 00:15:12;;;;;;;42.13;32.20;;;;;;;;;;4950213;28;20393;-82
2021/05/01 00:17:57;;;;;;;39.35;32.22;;;;;;;;;;4951257;28;20030;-82
2021/05/01 00:20:42;;;;;;;41.00;33.65;;;;;;;;;;4946352;28;20366;-82
2021/05/01 00:23:28;;;;;;;42.63;33.28;;;;;;;;;;4949452;28;20490;-84
2021/05/01 00:26:14;;;;;;;43.00;33.03;;;;;;;;;;4952720;28;20470;-81
2021/05/01 00:28:59;;;;;;;41.25;32.15;;;;;;;;;;4952331;28;20035;-83
2021/05/01 00:31:44;;;;;;;39.28;31.10;;;;;;;;;;4945416;28;20026;-83
2021/05/01 00:34:29;;;;;;;44.67;34.90;;;;;;;;;;4954243;28;20050;-82
2021/05/01 00:37:14;;;;;;;45.13;33.90;;;;;;;;;;4946052;28;20030;-83
2021/05/01 00:40:00;;;;;;;44.03;33.83;;;;;;;;;;4952660;28;20046;-82
2021/05/01 00:42:47;;;;;;;46.40;34.75;;;;;;;;;;4954857;28;20081;-83
2021/05/01 00:45:33;;;;;;;38.45;30.42;;;;;;;;;;4952837;28;20190;-83
2021/05/01 00:48:20;;;;;;;41.53;33.20;;;;;;;;;;4945860;28;20023;-83
2021/05/01 00:51:06;;;;;;;38.03;31.25;;;;;;;;;;4950182;28;20086;-83
2021/05/01 00:53:51;;;;;;;39.03;30.15;;;;;;;;;;4957984;28;20134;-83
2021/05/01 00:56:37;;;;;;;43.88;33.00;;;;;;;;;;4950950;28;20282;-83
2021/05/01 00:59:22;;;;;;;45.35;34.10;;;;;;;;;;4947751;28;20036;-83
2021/05/01 01:02:07;;;;;;;38.05;30.75;;;;;;;;;;4948180;28;20030;-83
2021/05/01 01:04:53;;;;;;;40.70;31.65;;;;;;;;;;4949708;28;20093;-83
2021/05/01 01:07:38;;;;;;;41.10;32.33;;;;;;;;;;4953578;28;20022;-83
2021/05/01 01:10:23;;;;;;;48.42;35.90;;;;;;;;;;4956507;28;20029;-82
2021/05/01 01:13:08;;;;;;;45.83;35.90;;;;;;;;;;4949989;28;20061;-83
2021/05/01 01:15:54;;;;;;;40.47;31.95;;;;;;;;;;4948384;28;20062;-83
2021/05/01 01:18:39;;;;;;;40.72;32.33;;;;;;;;;;4952363;28;20030;-83
2021/05/01 01:21:25;;;;;;;45.10;33.63;;;;;;;;;;4955228;28;20113;-83
2021/05/01 01:24:11;;;;;;;42.22;32.47;;;;;;;;;;4952290;28;20598;-83
2021/05/01 01:26:57;;;;;;;41.42;33.20;;;;;;;;;;4954840;28;20125;-82
2021/05/01 01:29:42;;;;;;;44.08;33.92;;;;;;;;;;4943490;28;20034;-83
2021/05/01 01:32:28;;;;;;;40.50;32.00;;;;;;;;;;4951624;28;20030;-83
2021/05/01 01:35:13;;;;;;;39.22;31.77;;;;;;;;;;4952045;28;20030;-82
2021/05/01 01:38:01;;;;;;;45.85;34.47;;;;;;;;;;4949907;28;20425;-83
2021/05/01 01:40:46;;;;;;;44.75;34.90;;;;;;;;;;4962387;28;20732;-82
2021/05/01 01:43:31;;;;;;;48.22;34.38;;;;;;;;;;4949820;28;20088;-83
2021/05/01 01:46:17;;;;;;;39.30;31.13;;;;;;;;;;4955715;28;20026;-82
2021/05/01 01:49:02;;;;;;;41.35;32.30;;;;;;;;;;4956221;28;20441;-82
2021/05/01 01:51:47;;;;;;;43.53;33.42;;;;;;;;;;4952365;28;20844;-84
2021/05/01 01:54:33;;;;;;;47.15;34.35;;;;;;;;;;4953807;28;20602;-83
2021/05/01 01:57:18;;;;;;;42.33;32.80;;;;;;;;;;4956783;28;20023;-83
2021/05/01 02:00:08;;;;;;;47.00;35.97;;;;;;;;;;4953530;28;20031;-83
2021/05/01 02:02:53;;;;;;;48.03;36.50;;;;;;;;;;4950648;28;20090;-83
2021/05/01 02:05:38;;;;;;;45.55;34.40;;;;;;;;;;4953631;28;20026;-85
2021/05/01 02:08:24;;;;;;;43.35;34.42;;;;;;;;;;4960608;28;20548;-83
2021/05/01 02:11:09;;;;;;;47.38;37.55;;;;;;;;;;4953603;28;20156;-83
2021/05/01 02:13:54;;;;;;;43.55;34.35;;;;;;;;;;4957870;28;20023;-83
2021/05/01 02:16:39;;;;;;;42.67;32.88;;;;;;;;;;4950618;28;20057;-84
2021/05/01 02:19:25;;;;;;;48.25;35.10;;;;;;;;;;4950804;28;20043;-83
2021/05/01 02:22:10;;;;;;;48.78;36.08;;;;;;;;;;4953694;28;20470;-83
2021/05/01 02:24:55;;;;;;;41.53;32.88;;;;;;;;;;4949905;28;20050;-84
2021/05/01 02:27:41;;;;;;;34.95;28.70;;;;;;;;;;4941680;28;20031;-83
2021/05/01 02:30:27;;;;;;;45.40;34.58;;;;;;;;;;4944100;28;20121;-83
2021/05/01 02:33:12;;;;;;;48.60;35.30;;;;;;;;;;4940560;28;20121;-83
2021/05/01 02:35:58;;;;;;;49.35;35.92;;;;;;;;;;4950343;28;20136;-84
2021/05/01 02:38:43;;;;;;;35.63;29.85;;;;;;;;;;4961471;28;20552;-83
2021/05/01 02:41:28;;;;;;;46.40;35.88;;;;;;;;;;4952674;28;20046;-84
2021/05/01 02:44:13;;;;;;;51.15;36.47;;;;;;;;;;4953862;28;20206;-82
2021/05/01 02:46:58;;;;;;;49.65;35.47;;;;;;;;;;4954203;28;20035;-82
2021/05/01 02:49:44;;;;;;;43.63;33.17;;;;;;;;;;4956462;28;20050;-82
2021/05/01 02:52:29;;;;;;;44.03;34.10;;;;;;;;;;4950145;28;20085;-83
2021/05/01 02:55:14;;;;;;;45.67;34.72;;;;;;;;;;4954975;28;20033;-83
2021/05/01 02:57:59;;;;;;;44.63;35.05;;;;;;;;;;4957039;28;20114;-83
2021/05/01 03:00:45;;;;;;;43.28;33.20;;;;;;;;;;4949948;28;20037;-84
2021/05/01 03:03:30;;;;;;;52.97;37.88;;;;;;;;;;4952544;28;20515;-83
2021/05/01 03:06:15;;;;;;;48.33;35.50;;;;;;;;;;4957338;28;20073;-83
2021/05/01 03:09:00;;;;;;;52.25;39.38;;;;;;;;;;4952516;28;20026;-84
2021/05/01 03:11:46;;;;;;;42.97;34.30;;;;;;;;;;4958266;28;20437;-82
2021/05/01 03:14:31;;;;;;;41.67;33.00;;;;;;;;;;4949426;28;20030;-85
2021/05/01 03:17:16;;;;;;;44.42;34.33;;;;;;;;;;4949314;28;20041;-84
2021/05/01 03:20:02;;;;;;;41.13;32.13;;;;;;;;;;4965632;28;20736;-84
2021/05/01 03:22:48;;;;;;;42.28;34.45;;;;;;;;;;4955797;28;20532;-84
2021/05/01 03:25:33;;;;;;;37.92;30.55;;;;;;;;;;4949968;28;20047;-83
2021/05/01 03:28:21;;;;;;;45.03;34.65;;;;;;;;;;4949041;28;20097;-84
2021/05/01 03:31:06;;;;;;;55.03;40.38;;;;;;;;;;4951474;28;20035;-84
2021/05/01 03:33:51;;;;;;;41.67;32.10;;;;;;;;;;4948953;28;20022;-82
2021/05/01 03:36:36;;;;;;;51.67;38.72;;;;;;;;;;4954762;28;20035;-83
2021/05/01 03:39:22;;;;;;;55.50;38.92;;;;;;;;;;4947606;28;20038;-83
2021/05/01 03:42:07;;;;;;;46.47;35.88;;;;;;;;;;4957103;28;20023;-83
2021/05/01 03:44:52;;;;;;;46.45;34.22;;;;;;;;;;4953894;28;20439;-83
2021/05/01 03:47:37;;;;;;;48.92;37.08;;;;;;;;;;4948894;28;20026;-86
2021/05/01 03:50:23;;;;;;;55.63;40.65;;;;;;;;;;4948558;28;20026;-84
2021/05/01 03:53:08;;;;;;;47.40;36.22;;;;;;;;;;4950476;28;20023;-84
2021/05/01 03:55:53;;;;;;;59.50;40.92;;;;;;;;;;4953327;28;20061;-83
2021/05/01 03:58:38;;;;;;;44.85;34.20;;;;;;;;;;4949859;28;20408;-84
2021/05/01 04:01:24;;;;;;;53.75;40.58;;;;;;;;;;4955809;28;20031;-83
2021/05/01 04:04:10;;;;;;;51.58;37.50;;;;;;;;;;4951186;28;20155;-83
2021/05/01 04:06:55;;;;;;;51.83;39.75;;;;;;;;;;4953958;28;20085;-84
2021/05/01 04:09:41;;;;;;;48.28;37.75;;;;;;;;;;4954934;28;20556;-82
2021/05/01 04:12:26;;;;;;;52.20;39.95;;;;;;;;;;4953006;28;20030;-82
2021/05/01 04:15:11;;;;;;;53.25;37.80;;;;;;;;;;4951103;28;20023;-82
2021/05/01 04:17:56;;;;;;;53.22;39.42;;;;;;;;;;4953539;28;20019;-82
2021/05/01 04:20:42;;;;;;;56.08;41.30;;;;;;;;;;4965038;28;20366;-82
2021/05/01 04:23:27;;;;;;;52.53;38.97;;;;;;;;;;4956197;28;20054;-83
2021/05/01 04:26:12;;;;;;;45.17;33.92;;;;;;;;;;4948539;28;20022;-83
2021/05/01 04:28:58;;;;;;;58.17;39.90;;;;;;;;;;4948073;28;20023;-85
2021/05/01 04:31:43;;;;;;;45.67;35.80;;;;;;;;;;4950252;28;20542;-83
2021/05/01 04:34:29;;;;;;;51.47;40.65;;;;;;;;;;4954596;28;20037;-83
2021/05/01 04:37:14;;;;;;;59.05;41.13;;;;;;;;;;4947036;28;20019;-83
2021/05/01 04:39:59;;;;;;;53.83;39.78;;;;;;;;;;4945613;28;20409;-83
2021/05/01 04:42:52;;;;;;;49.15;38.55;;;;;;;;;;4950634;28;20094;-82
2021/05/01 04:45:37;;;;;;;56.22;42.72;;;;;;;;;;4948763;28;20445;-83
2021/05/01 04:48:23;;;;;;;70.25;44.22;;;;;;;;;;4948291;28;20011;-84
2021/05/01 04:51:08;;;;;;;58.45;43.17;;;;;;;;;;4957609;28;20022;-84
2021/05/01 04:53:53;;;;;;;58.10;43.80;;;;;;;;;;4946637;28;20023;-84
2021/05/01 04:56:39;;;;;;;59.15;42.30;;;;;;;;;;4946148;28;20058;-84
2021/05/01 04:59:24;;;;;;;61.95;43.55;;;;;;;;;;4954596;28;20019;-84
2021/05/01 05:02:09;;;;;;;59.80;42.72;;;;;;;;;;4939164;28;20030;-84
2021/05/01 05:04:54;;;;;;;63.22;45.00;;;;;;;;;;4955030;28;20045;-85
2021/05/01 05:07:40;;;;;;;62.92;43.70;;;;;;;;;;4951284;28;20081;-83
2021/05/01 05:10:25;;;;;;;58.28;43.33;;;;;;;;;;4945787;28;20026;-85
2021/05/01 05:13:10;;;;;;;64.10;45.10;;;;;;;;;;4951298;28;20046;-85
2021/05/01 05:15:56;;;;;;;57.83;43.75;;;;;;;;;;4949075;28;20027;-85
2021/05/01 05:18:41;;;;;;;62.33;44.35;;;;;;;;;;4952846;28;20666;-85
2021/05/01 05:21:28;;;;;;;58.85;42.70;;;;;;;;;;4950818;28;20036;-84
2021/05/01 05:24:14;;;;;;;59.92;45.90;;;;;;;;;;4945954;28;20054;-84
2021/05/01 05:26:59;;;;;;;58.67;45.92;;;;;;;;;;4961418;28;20026;-85
2021/05/01 05:29:50;;;;;;;49.65;39.25;;;;;;;;;;4950996;28;20026;-84
2021/05/01 05:32:36;;;;;;;49.97;39.55;;;;;;;;;;4946153;28;20026;-84
2021/05/01 05:35:21;;;;;;;53.13;41.67;;;;;;;;;;4952461;28;20046;-84
2021/05/01 05:38:06;;;;;;;59.33;43.78;;;;;;;;;;4954826;28;20598;-84
2021/05/01 05:40:52;;;;;;;54.58;42.65;;;;;;;;;;4947542;28;20023;-84
2021/05/01 05:43:37;;;;;;;50.35;39.92;;;;;;;;;;4943782;28;20035;-85
2021/05/01 05:46:22;;;;;;;47.72;38.38;;;;;;;;;;4945356;28;20031;-84
2021/05/01 05:49:08;;;;;;;54.20;44.30;;;;;;;;;;4940111;28;20035;-84
2021/05/01 05:51:54;;;;;;;49.30;38.78;;;;;;;;;;4950208;28;20028;-85
2021/05/01 05:54:39;;;;;;;50.17;39.60;;;;;;;;;;4955926;28;20031;-88
2021/05/01 05:57:24;;;;;;;56.97;43.60;;;;;;;;;;4946629;28;20030;-87
2021/05/01 06:00:11;;;;;;;53.22;41.80;;;;;;;;;;4946720;28;20505;-86
2021/05/01 06:03:00;;;;;;;56.55;41.85;;;;;;;;;;4951990;28;20029;-91
2021/05/01 06:05:50;;;;;;;48.30;37.38;;;;;;;;;;4954670;28;20027;-90
2021/05/01 06:08:37;;;;;;;47.95;36.67;;;;;;;;;;4935770;28;20033;-88
2021/05/01 06:11:22;;;;;;;48.08;37.30;;;;;;;;;;4933820;28;20081;-89
2021/05/01 06:14:08;;;;;;;48.72;37.53;;;;;;;;;;4948823;28;20534;-88
2021/05/01 06:16:54;;;;;;;45.30;36.85;;;;;;;;;;4953558;28;20431;-88
2021/05/01 06:19:40;;;;;;;43.17;33.40;;;;;;;;;;4949721;28;20538;-87
2021/05/01 06:22:26;;;;;;;44.13;35.38;;;;;;;;;;4952770;28;20422;-88
2021/05/01 06:25:12;;;;;;;48.50;36.85;;;;;;;;;;4952996;28;20093;-88
2021/05/01 06:27:57;;;;;;;43.17;34.50;;;;;;;;;;4961225;28;20488;-82
2021/05/01 06:30:44;;;;;;;41.55;31.85;;;;;;;;;;4954673;28;20023;-87
2021/05/01 06:33:29;;;;;;;39.13;31.30;;;;;;;;;;4952687;28;20045;-90
2021/05/01 06:36:16;;;;;;;39.95;33.38;;;;;;;;;;4953813;28;20057;-89
2021/05/01 06:39:04;;;;;;;44.03;34.88;;;;;;;;;;4957768;28;20098;-88
2021/05/01 06:41:58;;;;;;;39.85;32.15;;;;;;;;;;4953031;28;20023;-90
2021/05/01 06:45:03;;;;;;;42.28;32.00;;;;;;;;;;4951779;28;20027;-84
2021/05/01 06:48:18;;;;;;;39.08;29.92;;;;;;;;;;4956691;28;20030;-86
2021/05/01 06:51:04;;;;;;;38.33;29.33;;;;;;;;;;4948987;28;20498;-85
2021/05/01 06:53:49;;;;;;;33.38;27.63;;;;;;;;;;4939667;28;20086;-86
2021/05/01 06:56:37;;;;;;;32.92;27.20;;;;;;;;;;4945882;28;20892;-83
2021/05/01 06:59:23;;;;;;;37.60;31.17;;;;;;;;;;4957492;28;20027;-82
2021/05/01 07:02:09;;;;;;;34.25;27.73;;;;;;;;;;4947495;28;20027;-81
2021/05/01 07:04:55;;;;;;;37.45;30.15;;;;;;;;;;4954345;28;20109;-83
2021/05/01 07:07:40;;;;;;;36.75;29.20;;;;;;;;;;4953206;28;20026;-83
2021/05/01 07:10:25;;;;;;;34.03;28.60;;;;;;;;;;4949737;28;20033;-82
2021/05/01 07:13:14;;;;;;;32.72;26.95;;;;;;;;;;4946132;28;20034;-85
2021/05/01 07:16:03;;;;;;;37.20;29.58;;;;;;;;;;4933453;28;20178;-90
2021/05/01 07:18:49;;;;;;;33.88;28.38;;;;;;;;;;4958667;28;20088;-89
2021/05/01 07:21:35;;;;;;;35.47;27.98;;;;;;;;;;4940023;28;20046;-85
2021/05/01 07:24:20;;;;;;;36.40;29.83;;;;;;;;;;4952086;28;20169;-83
2021/05/01 07:27:06;;;;;;;33.33;27.52;;;;;;;;;;4954815;28;20026;-83
2021/05/01 07:29:52;;;;;;;39.47;31.08;;;;;;;;;;4954986;28;20062;-84
2021/05/01 07:32:40;;;;;;;35.20;29.70;;;;;;;;;;4952455;28;20133;-84
2021/05/01 07:35:27;;;;;;;35.78;29.13;;;;;;;;;;4954712;28;20035;-84
2021/05/01 07:38:12;;;;;;;33.63;28.00;;;;;;;;;;4951184;28;20550;-84
2021/05/01 07:41:01;;;;;;;38.10;31.73;;;;;;;;;;4956238;28;20023;-84
2021/05/01 07:43:48;;;;;;;38.55;30.70;;;;;;;;;;4949431;28;20433;-84
2021/05/01 07:46:34;;;;;;;36.47;28.40;;;;;;;;;;4956745;28;20022;-84
2021/05/01 07:49:20;;;;;;;37.80;32.17;;;;;;;;;;4955502;28;20026;-83
2021/05/01 07:52:06;;;;;;;33.50;28.65;;;;;;;;;;4953106;28;20062;-84
2021/05/01 07:54:51;;;;;;;35.20;30.38;;;;;;;;;;4950982;28;20033;-84
2021/05/01 07:57:37;;;;;;;30.45;26.50;;;;;;;;;;4958983;28;20039;-84
2021/05/01 08:00:22;;;;;;;32.00;28.38;;;;;;;;;;4951500;28;20030;-85
2021/05/01 08:03:07;;;;;;;36.90;29.00;;;;;;;;;;4947187;28;20031;-85
2021/05/01 08:05:52;;;;;;;38.10;30.08;;;;;;;;;;4945675;28;20363;-85
2021/05/01 08:08:41;;;;;;;33.10;28.10;;;;;;;;;;4949588;28;20023;-85
2021/05/01 08:11:26;;;;;;;33.60;28.02;;;;;;;;;;4951829;28;20094;-85
2021/05/01 08:14:11;;;;;;;33.13;28.02;;;;;;;;;;4950091;28;20431;-86
2021/05/01 08:16:56;;;;;;;31.83;25.35;;;;;;;;;;4961674;28;20050;-85
2021/05/01 08:19:41;;;;;;;31.15;26.13;;;;;;;;;;4950980;28;20067;-86
2021/05/01 08:22:27;;;;;;;30.05;25.00;;;;;;;;;;4951005;28;20035;-84
2021/05/01 08:25:12;;;;;;;34.75;27.67;;;;;;;;;;4944356;28;20436;-85
2021/05/01 08:27:58;;;;;;;34.65;27.42;;;;;;;;;;4959012;28;20023;-84
2021/05/01 08:30:44;;;;;;;35.60;27.33;;;;;;;;;;4951377;28;20156;-85
2021/05/01 08:33:29;;;;;;;33.97;27.50;;;;;;;;;;4948309;28;20042;-84
2021/05/01 08:36:15;;;;;;;32.70;25.92;;;;;;;;;;4950820;28;20031;-84
2021/05/01 08:39:00;;;;;;;35.63;26.70;;;;;;;;;;4948086;28;20030;-84
2021/05/01 08:41:45;;;;;;;34.65;27.15;;;;;;;;;;4956975;28;20026;-84
2021/05/01 08:44:30;;;;;;;38.20;27.50;;;;;;;;;;4955047;28;20027;-84
2021/05/01 08:47:16;;;;;;;29.73;25.35;;;;;;;;;;4953627;28;20033;-84
2021/05/01 08:50:05;;;;;;;30.17;25.10;;;;;;;;;;4945104;28;20061;-84
2021/05/01 08:52:54;;;;;;;30.88;25.70;;;;;;;;;;4959324;28;20062;-84
2021/05/01 08:55:39;;;;;;;29.63;24.02;;;;;;;;;;4953749;28;20038;-85
2021/05/01 08:58:24;;;;;;;30.38;25.42;;;;;;;;;;4950163;28;20034;-84
2021/05/01 09:01:12;;;;;;;28.05;23.92;;;;;;;;;;4950674;28;20027;-84
2021/05/01 09:03:58;;;;;;;32.85;26.13;;;;;;;;;;4952594;28;20035;-85
2021/05/01 09:06:43;;;;;;;31.13;24.98;;;;;;;;;;4953591;28;20023;-85
2021/05/01 09:09:36;;;;;;;28.35;23.90;;;;;;;;;;4955888;28;20030;-86
2021/05/01 09:12:43;;;;;;;31.58;25.10;;;;;;;;;;4948505;28;20510;-84
2021/05/01 09:15:29;;;;;;;26.45;21.92;;;;;;;;;;4961122;28;20486;-83
2021/05/01 09:18:15;;;;;;;28.95;24.70;;;;;;;;;;4966977;28;20453;-85
2021/05/01 09:21:11;;;;;;;30.25;25.17;;;;;;;;;;4943708;28;20018;-85
2021/05/01 09:23:57;;;;;;;31.65;25.10;;;;;;;;;;4951689;28;20074;-84
2021/05/01 09:26:42;;;;;;;29.85;24.00;;;;;;;;;;4942183;28;20422;-85
2021/05/01 09:29:34;;;;;;;27.50;22.92;;;;;;;;;;4972693;28;20041;-85
2021/05/01 09:32:20;;;;;;;27.50;23.35;;;;;;;;;;4957013;28;20030;-85
2021/05/01 09:35:06;;;;;;;34.13;25.10;;;;;;;;;;4958998;28;20444;-85
2021/05/01 09:37:52;;;;;;;32.50;25.95;;;;;;;;;;4950010;28;20030;-85
2021/05/01 09:40:43;;;;;;;30.58;23.90;;;;;;;;;;4960303;28;20034;-85
2021/05/01 09:43:28;;;;;;;30.80;24.58;;;;;;;;;;4947234;28;20397;-86
2021/05/01 09:46:14;;;;;;;25.02;21.52;;;;;;;;;;4964457;28;20046;-85
2021/05/01 09:49:04;;;;;;;30.85;23.13;;;;;;;;;;4954220;28;20018;-86
2021/05/01 09:51:56;;;;;;;26.20;20.52;;;;;;;;;;4975944;28;20026;-86
2021/05/01 09:54:48;;;;;;;25.05;20.67;;;;;;;;;;4949860;28;20022;-87
2021/05/01 09:57:38;;;;;;;27.52;22.17;;;;;;;;;;4949045;28;20023;-84
2021/05/01 10:00:23;;;;;;;;;;;;;;;;;;4961291;28;20473;-84
2021/05/01 10:03:22;;;;;;;30.13;24.13;;;;;;;;;;4953328;28;20013;-84
2021/05/01 10:06:08;;;;;;;29.80;23.75;;;;;;;;;;4962045;28;20033;-85
2021/05/01 10:08:54;;;;;;;26.40;21.23;;;;;;;;;;4948898;28;20026;-84
2021/05/01 10:11:39;;;;;;;26.60;21.67;;;;;;;;;;4952563;28;20611;-85
2021/05/01 10:14:34;;;;;;;29.15;20.60;;;;;;;;;;4976838;28;20022;-83
2021/05/01 10:17:22;;;;;;;27.13;22.02;;;;;;;;;;4959246;28;20026;-84
2021/05/01 10:20:08;;;;;;;24.38;20.73;;;;;;;;;;4971256;28;20066;-85
2021/05/01 10:23:01;;;;;;;24.85;20.38;;;;;;;;;;4982574;28;20019;-84
2021/05/01 10:25:47;;;;;;;26.17;20.85;;;;;;;;;;4937918;28;20047;-85
2021/05/01 10:28:44;;;;;;;24.33;20.73;;;;;;;;;;4937511;28;20067;-86
2021/05/01 10:31:43;;;;;;;25.15;20.40;;;;;;;;;;4937769;28;20386;-85
2021/05/01 10:34:29;;;;;;;26.98;22.50;;;;;;;;;;4938718;28;20026;-84
2021/05/01 10:37:15;;;;;;;26.25;22.48;;;;;;;;;;4940968;28;20082;-83
2021/05/01 10:40:00;;;;;;;27.17;22.42;;;;;;;;;;4930265;28;20042;-83
2021/05/01 10:42:45;;;;;;;28.90;22.77;;;;;;;;;;4943583;28;20035;-84
2021/05/01 10:45:31;;;;;;;28.13;24.10;;;;;;;;;;4934239;28;20031;-84
2021/05/01 10:48:16;;;;;;;30.65;25.20;;;;;;;;;;4933681;28;20039;-84
2021/05/01 10:51:03;;;;;;;31.23;25.13;;;;;;;;;;4932947;28;20007;-84
2021/05/01 10:54:08;;;;;;;32.72;26.10;;;;;;;;;;4941877;28;20110;-83
2021/05/01 10:56:54;;;;;;;30.45;25.35;;;;;;;;;;4936892;28;20422;-85
2021/05/01 10:59:39;;;;;;;31.55;23.77;;;;;;;;;;4937376;28;20034;-84
2021/05/01 11:02:44;;;;;;;27.60;23.85;;;;;;;;;;4931918;28;20528;-84
2021/05/01 11:05:31;;;;;;;29.58;24.88;;;;;;;;;;4930927;28;20019;-82
2021/05/01 11:08:28;;;;;;;28.38;23.35;;;;;;;;;;4933858;28;20122;-84
2021/05/01 11:11:14;;;;;;;29.17;25.58;;;;;;;;;;4940290;28;20488;-83
2021/05/01 11:14:19;;;;;;;28.98;24.15;;;;;;;;;;4936998;28;20027;-85
2021/05/01 11:17:10;;;;;;;33.28;26.15;;;;;;;;;;4934461;28;20027;-84
2021/05/01 11:20:08;;;;;;;29.92;26.15;;;;;;;;;;4941035;28;20025;-83
2021/05/01 11:22:53;;;;;;;29.60;25.35;;;;;;;;;;4932662;28;20559;-83
2021/05/01 11:25:38;;;;;;;35.05;27.05;;;;;;;;;;4956003;28;20521;-83
2021/05/01 11:28:24;;;;;;;32.67;27.88;;;;;;;;;;4957201;28;20030;-83
2021/05/01 11:31:12;;;;;;;32.75;27.95;;;;;;;;;;4954391;28;20482;-83
2021/05/01 11:34:00;;;;;;;33.58;27.48;;;;;;;;;;4948867;28;20482;-83
2021/05/01 11:36:46;;;;;;;31.98;27.05;;;;;;;;;;4954285;28;20061;-83
2021/05/01 11:39:36;;;;;;;35.90;26.55;;;;;;;;;;4959327;28;20433;-83
2021/05/01 11:42:22;;;;;;;29.48;25.25;;;;;;;;;;4955333;28;20058;-83
2021/05/01 11:45:13;;;;;;;35.08;26.60;;;;;;;;;;4953470;28;20027;-85
2021/05/01 11:48:04;;;;;;;31.35;23.80;;;;;;;;;;4950976;28;20034;-84
2021/05/01 11:50:50;;;;;;;33.55;25.90;;;;;;;;;;4961594;28;20695;-85
2021/05/01 11:53:48;;;;;;;31.90;24.85;;;;;;;;;;4949743;28;20026;-85
2021/05/01 11:56:33;;;;;;;35.05;25.58;;;;;;;;;;4957597;28;20054;-85
2021/05/01 11:59:19;;;;;;;31.17;26.40;;;;;;;;;;4957206;28;20037;-83
2021/05/01 12:02:05;;;;;;;31.40;27.23;;;;;;;;;;4945933;28;20114;-86
2021/05/01 12:04:56;;;;;;;30.15;26.08;;;;;;;;;;4958675;28;20103;-84
2021/05/01 12:07:44;;;;;;;29.45;25.52;;;;;;;;;;4957906;28;20537;-86
2021/05/01 12:10:31;;;;;;;28.17;24.27;;;;;;;;;;4954902;28;20385;-84
2021/05/01 12:13:22;;;;;;;32.53;26.90;;;;;;;;;;4950059;28;20093;-86
2021/05/01 12:16:16;;;;;;;28.60;24.48;;;;;;;;;;4958170;28;20030;-84
2021/05/01 12:19:02;;;;;;;35.08;28.10;;;;;;;;;;4937048;28;20022;-85
2021/05/01 12:21:47;;;;;;;31.15;27.83;;;;;;;;;;4951872;28;20030;-85
2021/05/01 12:24:32;;;;;;;31.52;26.05;;;;;;;;;;4959719;28;20068;-84
2021/05/01 12:27:36;;;;;;;33.38;26.95;;;;;;;;;;4954122;28;20482;-84
2021/05/01 12:30:41;;;;;;;29.50;24.70;;;;;;;;;;4949755;28;20034;-85
2021/05/01 12:33:27;;;;;;;32.00;26.15;;;;;;;;;;4957102;28;20035;-86
2021/05/01 12:36:13;;;;;;;28.70;25.35;;;;;;;;;;4957360;28;20115;-83
2021/05/01 12:38:59;;;;;;;28.48;25.40;;;;;;;;;;4954235;28;20027;-85
2021/05/01 12:41:45;;;;;;;31.83;26.35;;;;;;;;;;4954381;28;20061;-85
2021/05/01 12:44:30;;;;;;;31.83;27.95;;;;;;;;;;4958138;28;20391;-85
2021/05/01 12:47:39;;;;;;;30.70;26.38;;;;;;;;;;4954144;28;20039;-87
2021/05/01 12:50:25;;;;;;;30.95;26.95;;;;;;;;;;4953081;28;20067;-85
2021/05/01 12:53:27;;;;;;;31.67;27.15;;;;;;;;;;4961192;28;20052;-85
2021/05/01 12:56:29;;;;;;;30.85;26.05;;;;;;;;;;4946183;28;20453;-84
2021/05/01 12:59:21;;;;;;;29.90;25.17;;;;;;;;;;4951916;28;20045;-85
2021/05/01 13:02:10;;;;;;;28.95;24.70;;;;;;;;;;4959971;28;20034;-85
2021/05/01 13:05:21;;;;;;;28.45;25.27;;;;;;;;;;4943211;28;20031;-85
2021/05/01 13:08:07;;;;;;;29.65;24.98;;;;;;;;;;4954208;28;20015;-84
2021/05/01 13:10:53;;;;;;;31.75;25.20;;;;;;;;;;4948640;28;20042;-85
2021/05/01 13:13:38;;;;;;;29.33;25.23;;;;;;;;;;4956936;28;20909;-86
2021/05/01 13:16:26;;;;;;;28.92;24.63;;;;;;;;;;4946749;28;20027;-85
2021/05/01 13:19:11;;;;;;;30.70;25.60;;;;;;;;;;4957958;28;20616;-84
2021/05/01 13:22:00;;;;;;;28.90;24.65;;;;;;;;;;4951721;28;20030;-85
2021/05/01 13:24:46;;;;;;;30.83;25.45;;;;;;;;;;4955934;28;20047;-85
2021/05/01 13:27:32;;;;;;;30.98;25.67;;;;;;;;;;4955174;28;20094;-85
2021/05/01 13:30:22;;;;;;;35.13;26.40;;;;;;;;;;4958120;28;20709;-84
2021/05/01 13:33:09;;;;;;;31.38;25.92;;;;;;;;;;4948407;28;20023;-85
2021/05/01 13:35:55;;;;;;;32.30;25.85;;;;;;;;;;4951942;28;20073;-84
2021/05/01 13:38:41;;;;;;;30.08;26.05;;;;;;;;;;4953856;28;20026;-85
2021/05/01 13:41:26;;;;;;;31.38;25.73;;;;;;;;;;4933253;28;20065;-84
2021/05/01 13:44:16;;;;;;;31.85;25.58;;;;;;;;;;4953571;28;20023;-84
2021/05/01 13:47:01;;;;;;;30.15;25.80;;;;;;;;;;4952679;28;20023;-85
2021/05/01 13:49:47;;;;;;;32.28;25.52;;;;;;;;;;4953608;28;20088;-83
2021/05/01 13:52:43;;;;;;;31.63;27.30;;;;;;;;;;4952691;28;20030;-84
2021/05/01 13:55:30;;;;;;;32.60;25.30;;;;;;;;;;4957453;28;20084;-85
2021/05/01 13:58:17;;;;;;;31.83;26.67;;;;;;;;;;4948211;28;20031;-85
2021/05/01 14:01:02;;;;;;;32.45;26.63;;;;;;;;;;4946935;28;20413;-86
2021/05/01 14:03:50;;;;;;;32.47;28.10;;;;;;;;;;4949420;28;20024;-85
2021/05/01 14:06:36;;;;;;;35.17;28.55;;;;;;;;;;4959848;28;20179;-84
2021/05/01 14:09:23;;;;;;;32.63;28.98;;;;;;;;;;4949316;28;20082;-84
2021/05/01 14:12:09;;;;;;;29.85;24.75;;;;;;;;;;4950269;28;20030;-85
2021/05/01 14:14:54;;;;;;;31.80;26.92;;;;;;;;;;4954401;28;20483;-83
2021/05/01 14:17:43;;;;;;;31.25;26.27;;;;;;;;;;4946920;28;20030;-85
2021/05/01 14:20:28;;;;;;;29.52;25.77;;;;;;;;;;4951596;28;20110;-85
2021/05/01 14:23:16;;;;;;;29.95;26.23;;;;;;;;;;4947865;28;20035;-84
2021/05/01 14:26:02;;;;;;;32.45;25.95;;;;;;;;;;4948103;28;20491;-83
2021/05/01 14:28:47;;;;;;;30.75;27.45;;;;;;;;;;4952627;28;20797;-84
2021/05/01 14:31:33;;;;;;;30.33;26.50;;;;;;;;;;4946374;28;20026;-85
2021/05/01 14:34:27;;;;;;;34.10;27.42;;;;;;;;;;4945372;28;20030;-84
2021/05/01 14:37:12;;;;;;;32.20;26.98;;;;;;;;;;4956441;28;20053;-84
2021/05/01 14:39:59;;;;;;;35.83;27.75;;;;;;;;;;4947406;28;20113;-84
2021/05/01 14:42:46;;;;;;;31.10;25.73;;;;;;;;;;4953455;28;20038;-83
2021/05/01 14:45:31;;;;;;;31.35;26.75;;;;;;;;;;4948704;28;20368;-86
2021/05/01 14:48:16;;;;;;;31.55;26.25;;;;;;;;;;4943370;28;20023;-85
2021/05/01 14:51:05;;;;;;;33.00;26.48;;;;;;;;;;4950241;28;20046;-85
2021/05/01 14:54:06;;;;;;;32.20;26.90;;;;;;;;;;4959486;28;20054;-85
2021/05/01 14:57:02;;;;;;;30.10;24.52;;;;;;;;;;4974120;28;20505;-84
2021/05/01 15:00:01;;;;;;;28.52;23.95;;;;;;;;;;4948738;28;20048;-84
2021/05/01 15:02:47;;;;;;;28.83;25.33;;;;;;;;;;4954230;28;20386;-84
2021/05/01 15:05:32;;;;;;;31.98;27.95;;;;;;;;;;4954559;28;20150;-84
2021/05/01 15:08:18;;;;;;;31.80;26.15;;;;;;;;;;4966563;28;20030;-84
2021/05/01 15:11:13;;;;;;;33.88;24.95;;;;;;;;;;4953709;28;20037;-84
2021/05/01 15:14:17;;;;;;;27.55;23.73;;;;;;;;;;4956049;28;20026;-85
2021/05/01 15:17:02;;;;;;;31.33;24.83;;;;;;;;;;4957306;28;20085;-84
2021/05/01 15:20:08;;;;;;;28.10;22.85;;;;;;;;;;4961228;28;20046;-84
2021/05/01 15:22:53;;;;;;;30.55;25.50;;;;;;;;;;4955482;28;20027;-85
2021/05/01 15:25:39;;;;;;;28.05;24.40;;;;;;;;;;4954770;28;20065;-84
2021/05/01 15:28:26;;;;;;;29.70;24.05;;;;;;;;;;4947167;28;20032;-84
2021/05/01 15:31:12;;;;;;;27.92;22.92;;;;;;;;;;4953869;28;20486;-84
2021/05/01 15:33:57;;;;;;;29.55;24.70;;;;;;;;;;4956557;28;20023;-85
2021/05/01 15:36:42;;;;;;;29.67;26.42;;;;;;;;;;4947316;28;20470;-85
2021/05/01 15:39:27;;;;;;;31.10;25.92;;;;;;;;;;4952105;28;20145;-85
2021/05/01 15:42:13;;;;;;;31.35;26.75;;;;;;;;;;4956120;28;20018;-85
2021/05/01 15:44:58;;;;;;;31.60;26.45;;;;;;;;;;4935888;28;20018;-85
2021/05/01 15:47:43;;;;;;;31.08;25.65;;;;;;;;;;4953532;28;20034;-85
2021/05/01 15:50:29;;;;;;;30.20;26.40;;;;;;;;;;4951464;28;20409;-84
2021/05/01 15:53:17;;;;;;;33.92;28.15;;;;;;;;;;4954994;28;20117;-84
2021/05/01 15:56:03;;;;;;;33.97;26.88;;;;;;;;;;4955579;28;20046;-84
2021/05/01 15:58:49;;;;;;;34.95;28.98;;;;;;;;;;4956312;28;20114;-84
2021/05/01 16:01:34;;;;;;;35.25;28.70;;;;;;;;;;4954240;28;20034;-84
2021/05/01 16:04:19;;;;;;;34.22;29.10;;;;;;;;;;4950921;28;20026;-85
2021/05/01 16:07:04;;;;;;;33.65;28.67;;;;;;;;;;4944714;28;20027;-85
2021/05/01 16:09:50;;;;;;;34.08;29.00;;;;;;;;;;4964998;28;20030;-84
2021/05/01 16:12:35;;;;;;;33.50;29.33;;;;;;;;;;4942334;28;20030;-84
2021/05/01 16:15:21;;;;;;;36.75;29.63;;;;;;;;;;4954033;28;20497;-83